Time;durP1;ratioP1;P1;durP2;ratioP2;P2;SDS_P1;SDS_P2;PMS_P1;PMS_P2;Temp;Humidity;BMP_temperature;BMP_pressure;BME280_temperature;BME280_humidity;BME280_pressure;Samples;Min_cycle;Max_cycle;Signal;HPM_P1;HPM_P2
2023/01/14 00:02:20;;;;;;;11.93;1.30;;;8.30;80.40;;;;;;5109551;27;20181;-82
2023/01/14 00:04:47;;;;;;;15.15;1.95;;;8.30;80.30;;;;;;5092334;28;20347;-82
2023/01/14 00:07:16;;;;;;;7.28;1.27;;;8.30;80.20;;;;;;5105925;28;20041;-84
2023/01/14 00:09:44;;;;;;;12.70;1.17;;;8.30;80.30;;;;;;5108069;28;20052;-83
2023/01/14 00:12:11;;;;;;;14.02;1.52;;;8.30;80.20;;;;;;5109235;28;20099;-83
2023/01/14 00:14:39;;;;;;;11.37;1.37;;;8.20;80.30;;;;;;5109059;28;20069;-83
2023/01/14 00:17:06;;;;;;;11.95;2.55;;;8.20;80.50;;;;;;5109660;28;20338;-83
2023/01/14 00:20:13;;;;;;;8.88;1.05;;;8.20;80.60;;;;;;5109813;28;20528;-83
2023/01/14 00:22:40;;;;;;;9.20;1.67;;;8.20;80.60;;;;;;5026416;28;20136;-83
2023/01/14 00:25:10;;;;;;;8.23;1.27;;;8.20;80.80;;;;;;5028283;28;20100;-81
2023/01/14 00:27:36;;;;;;;9.70;1.30;;;8.10;80.80;;;;;;5027599;28;20050;-82
2023/01/14 00:30:04;;;;;;;10.52;1.58;;;8.10;80.80;;;;;;5027139;28;20409;-82
2023/01/14 00:32:31;;;;;;;9.40;1.50;;;8.10;80.90;;;;;;5028559;28;20117;-82
2023/01/14 00:34:59;;;;;;;10.88;1.60;;;8.20;81.00;;;;;;5028412;28;20139;-82
2023/01/14 00:37:27;;;;;;;11.23;0.93;;;8.20;81.00;;;;;;5028285;28;21040;-82
2023/01/14 00:39:55;;;;;;;9.63;1.50;;;8.20;81.10;;;;;;5028135;28;20050;-82
2023/01/14 00:42:23;;;;;;;15.00;1.50;;;8.20;81.10;;;;;;5028413;28;20250;-83
2023/01/14 00:44:50;;;;;;;10.77;1.50;;;8.20;81.20;;;;;;5027243;28;20053;-82
2023/01/14 00:47:17;;;;;;;9.30;1.08;;;8.20;81.20;;;;;;5028173;28;20070;-82
2023/01/14 00:49:45;;;;;;;13.13;1.73;;;8.10;81.20;;;;;;5027712;28;20053;-82
2023/01/14 00:52:14;;;;;;;9.10;1.50;;;8.10;81.40;;;;;;5028252;28;20057;-82
2023/01/14 00:54:41;;;;;;;8.55;1.15;;;8.10;81.50;;;;;;5011533;28;20258;-83
2023/01/14 00:57:08;;;;;;;8.73;1.20;;;8.10;81.50;;;;;;5027691;28;20046;-82
2023/01/14 00:59:37;;;;;;;8.35;1.10;;;8.10;81.50;;;;;;5027790;28;20189;-82
2023/01/14 01:02:07;;;;;;;10.80;2.03;;;8.20;81.30;;;;;;5043122;28;21019;-83
2023/01/14 01:04:34;;;;;;;8.70;1.20;;;8.20;81.00;;;;;;5028029;28;20129;-83
2023/01/14 01:07:05;;;;;;;10.30;1.27;;;8.10;80.80;;;;;;5044621;28;20333;-84
2023/01/14 01:09:57;;;;;;;8.25;1.45;;;8.10;80.50;;;;;;5045014;28;20050;-83
2023/01/14 01:12:24;;;;;;;11.90;1.48;;;8.10;80.20;;;;;;5011441;28;20438;-82
2023/01/14 01:14:52;;;;;;;5.93;1.13;;;8.10;80.20;;;;;;5027946;28;20108;-82
2023/01/14 01:17:19;;;;;;;11.53;1.27;;;8.10;80.30;;;;;;5044401;28;20164;-83
2023/01/14 01:19:48;;;;;;;9.80;1.30;;;8.10;80.00;;;;;;5042763;28;20293;-82
2023/01/14 01:22:15;;;;;;;7.00;1.10;;;8.00;80.00;;;;;;5027389;28;20058;-83
2023/01/14 01:24:42;;;;;;;10.05;1.30;;;8.00;79.70;;;;;;5011015;28;20049;-81
2023/01/14 01:27:09;;;;;;;8.35;1.00;;;8.10;79.30;;;;;;5027330;28;20126;-82
2023/01/14 01:29:40;;;;;;;9.57;1.00;;;8.10;78.90;;;;;;5027140;28;20064;-82
2023/01/14 01:32:09;;;;;;;10.35;1.20;;;8.10;79.00;;;;;;5027811;28;20296;-82
2023/01/14 01:34:36;;;;;;;8.07;1.55;;;8.10;79.00;;;;;;5027422;28;20074;-81
2023/01/14 01:37:04;;;;;;;11.18;1.63;;;8.00;79.30;;;;;;5026276;28;20587;-81
2023/01/14 01:39:31;;;;;;;16.40;2.10;;;8.00;79.30;;;;;;5027093;28;20116;-83
2023/01/14 01:41:58;;;;;;;8.13;1.03;;;8.10;79.20;;;;;;5027292;28;20053;-82
2023/01/14 01:45:16;;;;;;;11.00;1.58;;;8.10;79.20;;;;;;5027387;28;20249;-82
2023/01/14 01:47:45;;;;;;;13.93;1.58;;;8.10;79.40;;;;;;5010594;28;20052;-82
2023/01/14 01:50:13;;;;;;;12.00;1.48;;;8.10;79.40;;;;;;5026861;28;20100;-82
2023/01/14 01:52:41;;;;;;;10.23;1.67;;;8.10;79.40;;;;;;5026032;28;20058;-82
2023/01/14 01:55:12;;;;;;;10.13;1.80;;;8.10;79.50;;;;;;5043733;28;20490;-82
2023/01/14 01:57:39;;;;;;;8.05;1.45;;;8.10;79.50;;;;;;5026869;28;20265;-82
2023/01/14 02:00:10;;;;;;;8.73;1.70;;;8.10;79.50;;;;;;5026857;28;20060;-82
2023/01/14 02:02:48;;;;;;;11.10;1.20;;;8.10;79.50;;;;;;5027047;28;20617;-82
2023/01/14 02:05:16;;;;;;;13.80;2.03;;;8.10;79.40;;;;;;5035125;28;20057;-81
2023/01/14 02:07:43;;;;;;;13.07;1.80;;;8.10;79.50;;;;;;5012098;28;20105;-82
2023/01/14 02:10:12;;;;;;;10.13;1.83;;;8.10;79.30;;;;;;5018947;28;20364;-82
2023/01/14 02:12:55;;;;;;;10.57;1.33;;;8.10;79.40;;;;;;5025454;28;20156;-82
2023/01/14 02:15:37;;;;;;;8.20;1.10;;;8.10;79.30;;;;;;5041898;28;20124;-83
2023/01/14 02:18:17;;;;;;;10.27;1.83;;;8.10;79.10;;;;;;5025128;28;20058;-82
2023/01/14 02:20:48;;;;;;;9.53;1.30;;;8.10;78.90;;;;;;5024775;28;20049;-81
2023/01/14 02:23:55;;;;;;;12.15;1.90;;;8.10;78.90;;;;;;5024951;28;20277;-82
2023/01/14 02:27:06;;;;;;;9.73;1.30;;;8.10;78.60;;;;;;5025037;28;20081;-81
2023/01/14 02:29:53;;;;;;;9.88;1.00;;;8.10;78.50;;;;;;4916104;28;20082;-82
2023/01/14 02:32:28;;;;;;;11.25;1.55;;;8.10;78.30;;;;;;4949583;28;20059;-81
2023/01/14 02:35:03;;;;;;;14.37;1.50;;;8.10;78.40;;;;;;4997688;28;20076;-84
2023/01/14 02:37:37;;;;;;;10.10;1.90;;;8.10;78.30;;;;;;5026541;28;20680;-81
2023/01/14 02:40:10;;;;;;;13.00;2.00;;;8.10;78.20;;;;;;5026312;28;20049;-83
2023/01/14 02:45:36;;;;;;;4.97;0.80;;;8.10;78.30;;;;;;5025565;28;21079;-83
2023/01/14 02:48:06;;;;;;;11.23;1.27;;;8.10;78.10;;;;;;5026146;28;20053;-82
2023/01/14 02:50:36;;;;;;;9.80;1.77;;;8.10;78.10;;;;;;5025848;28;20261;-82
2023/01/14 02:53:17;;;;;;;11.23;1.67;;;8.10;78.20;;;;;;5026265;28;20193;-82
2023/01/14 02:55:49;;;;;;;10.75;1.75;;;8.10;78.00;;;;;;5029767;28;20077;-81
2023/01/14 02:58:43;;;;;;;13.20;1.65;;;8.10;77.90;;;;;;5030118;28;20185;-82
2023/01/14 03:01:41;;;;;;;12.70;1.67;;;8.00;78.00;;;;;;5028286;28;20053;-82
2023/01/14 03:04:28;;;;;;;11.88;1.77;;;8.00;77.90;;;;;;5029497;28;20287;-81
2023/01/14 03:07:08;;;;;;;11.80;1.48;;;8.00;77.80;;;;;;5029527;28;20854;-81
2023/01/14 03:09:47;;;;;;;16.95;2.90;;;8.00;77.90;;;;;;5029490;28;20120;-81
2023/01/14 03:12:23;;;;;;;11.48;1.42;;;8.00;77.80;;;;;;5029417;28;20120;-82
2023/01/14 03:15:20;;;;;;;13.07;2.00;;;8.00;77.60;;;;;;5029718;28;20104;-82
2023/01/14 03:17:54;;;;;;;12.50;1.65;;;8.00;77.80;;;;;;5029300;28;20371;-82
2023/01/14 03:20:25;;;;;;;13.65;1.92;;;7.90;77.70;;;;;;5028502;28;20137;-82
2023/01/14 03:22:55;;;;;;;11.38;1.40;;;7.90;77.80;;;;;;5029078;28;20042;-81
2023/01/14 03:25:25;;;;;;;11.65;2.10;;;7.80;77.90;;;;;;5029230;28;20066;-82
2023/01/14 03:27:58;;;;;;;13.00;1.80;;;7.80;77.90;;;;;;5029313;28;20053;-82
2023/01/14 03:30:31;;;;;;;12.88;1.55;;;7.80;77.90;;;;;;5012323;28;20266;-82
2023/01/14 03:33:05;;;;;;;11.90;1.60;;;7.80;77.80;;;;;;5028860;28;20704;-81
2023/01/14 03:35:35;;;;;;;12.15;1.73;;;7.80;77.90;;;;;;5028124;28;20053;-81
2023/01/14 03:38:08;;;;;;;13.55;2.00;;;7.70;77.90;;;;;;5029326;28;20136;-81
2023/01/14 03:40:38;;;;;;;13.83;1.53;;;7.70;77.80;;;;;;5028807;28;20161;-81
2023/01/14 03:43:10;;;;;;;12.77;1.50;;;7.60;77.80;;;;;;5028918;28;20254;-81
2023/01/14 03:45:41;;;;;;;13.77;2.13;;;7.60;77.90;;;;;;5028794;28;20133;-81
2023/01/14 03:48:10;;;;;;;11.40;1.55;;;7.50;77.90;;;;;;5028745;28;20077;-81
2023/01/14 03:50:46;;;;;;;10.48;1.38;;;7.50;78.00;;;;;;5030262;28;20049;-81
2023/01/14 03:53:23;;;;;;;14.17;1.80;;;7.50;77.90;;;;;;5027495;28;20082;-81
2023/01/14 03:55:57;;;;;;;7.40;1.08;;;7.50;78.00;;;;;;5028691;28;20277;-82
2023/01/14 03:58:30;;;;;;;11.20;1.30;;;7.50;78.10;;;;;;5033118;28;20037;-82
2023/01/14 04:01:02;;;;;;;11.57;1.75;;;7.40;78.30;;;;;;5028821;28;20049;-81
2023/01/14 04:03:31;;;;;;;12.25;1.38;;;7.40;78.50;;;;;;5028435;28;20121;-82
2023/01/14 04:05:59;;;;;;;11.27;1.50;;;7.40;78.60;;;;;;5028650;28;20053;-81
2023/01/14 04:08:26;;;;;;;13.98;1.80;;;7.30;78.50;;;;;;5028919;28;20340;-82
2023/01/14 04:10:53;;;;;;;10.43;1.33;;;7.20;78.60;;;;;;5027379;28;20579;-81
2023/01/14 04:16:05;;;;;;;10.82;1.55;;;7.20;78.70;;;;;;5028666;28;20131;-83
2023/01/14 04:18:34;;;;;;;10.57;1.80;;;7.20;78.80;;;;;;5028276;28;20058;-81
2023/01/14 04:21:00;;;;;;;17.25;2.00;;;7.20;79.00;;;;;;5044735;28;20264;-81
2023/01/14 04:23:28;;;;;;;11.50;1.20;;;7.20;79.10;;;;;;5028372;28;20104;-82
2023/01/14 04:25:58;;;;;;;10.15;1.30;;;7.20;79.10;;;;;;5028515;28;20152;-82
2023/01/14 04:28:26;;;;;;;12.88;1.08;;;7.10;79.20;;;;;;5027239;28;20046;-83
2023/01/14 04:30:53;;;;;;;12.60;1.50;;;7.10;79.10;;;;;;5028002;28;20064;-82
2023/01/14 04:33:20;;;;;;;12.48;1.92;;;7.10;79.30;;;;;;5028031;28;21133;-81
2023/01/14 04:35:50;;;;;;;8.85;1.25;;;7.00;79.40;;;;;;5028295;28;20062;-82
2023/01/14 04:38:17;;;;;;;13.15;1.73;;;7.00;79.50;;;;;;5028393;28;20061;-82
2023/01/14 04:40:44;;;;;;;12.85;1.67;;;7.00;79.60;;;;;;5028008;28;20046;-81
2023/01/14 04:43:10;;;;;;;7.13;0.90;;;7.00;79.70;;;;;;5028046;28;20058;-82
2023/01/14 04:45:38;;;;;;;9.27;1.10;;;7.00;79.80;;;;;;5027084;28;21004;-81
2023/01/14 04:48:05;;;;;;;8.75;1.33;;;7.00;80.00;;;;;;5029663;28;20058;-82
2023/01/14 04:50:33;;;;;;;12.85;1.85;;;7.00;80.10;;;;;;5027663;28;20072;-81
2023/01/14 04:53:11;;;;;;;9.02;1.42;;;7.00;80.30;;;;;;5028027;28;20101;-82
2023/01/14 04:55:40;;;;;;;10.90;1.37;;;7.00;80.50;;;;;;5029414;28;20046;-81
2023/01/14 04:58:10;;;;;;;10.93;1.38;;;6.90;80.60;;;;;;5028003;28;20265;-82
2023/01/14 05:00:38;;;;;;;12.82;1.70;;;6.90;80.80;;;;;;5027827;28;20057;-82
2023/01/14 05:03:06;;;;;;;11.60;1.95;;;6.90;81.00;;;;;;5026504;28;20054;-82
2023/01/14 05:05:34;;;;;;;14.35;2.20;;;6.90;81.30;;;;;;5027615;28;20046;-81
2023/01/14 05:08:03;;;;;;;17.90;2.13;;;6.90;81.60;;;;;;5027907;28;20069;-81
2023/01/14 05:10:32;;;;;;;10.02;1.80;;;6.90;81.80;;;;;;5027489;28;20837;-81
2023/01/14 05:13:02;;;;;;;13.10;1.83;;;6.90;81.90;;;;;;5028056;28;20060;-82
2023/01/14 05:15:32;;;;;;;15.82;1.95;;;6.90;82.00;;;;;;5027595;28;20050;-82
2023/01/14 05:17:59;;;;;;;13.43;1.75;;;6.80;82.00;;;;;;5027152;28;20652;-82
2023/01/14 05:20:26;;;;;;;14.50;2.87;;;6.80;82.30;;;;;;5026167;28;20050;-81
2023/01/14 05:22:58;;;;;;;11.68;2.15;;;6.80;82.30;;;;;;5027394;28;20869;-82
2023/01/14 05:25:26;;;;;;;12.82;2.47;;;6.80;82.30;;;;;;5027797;28;20046;-83
2023/01/14 05:27:58;;;;;;;16.67;2.88;;;6.80;82.40;;;;;;5027601;28;20052;-81
2023/01/14 05:30:25;;;;;;;11.63;1.90;;;6.80;82.60;;;;;;5010653;28;20153;-81
2023/01/14 05:32:52;;;;;;;12.03;1.80;;;6.80;82.50;;;;;;5027338;28;20157;-82
2023/01/14 05:35:19;;;;;;;16.42;2.72;;;6.70;82.60;;;;;;5028859;28;20295;-81
2023/01/14 05:37:46;;;;;;;16.70;2.50;;;6.70;82.90;;;;;;5026456;28;20140;-82
2023/01/14 05:40:14;;;;;;;13.10;2.15;;;6.70;83.00;;;;;;5027014;28;20045;-81
2023/01/14 05:45:41;;;;;;;16.23;2.20;;;6.70;83.00;;;;;;5026787;28;20057;-82
2023/01/14 05:48:09;;;;;;;11.60;1.77;;;6.70;83.00;;;;;;5027226;28;20253;-82
2023/01/14 05:50:37;;;;;;;13.50;1.65;;;6.70;83.00;;;;;;5043345;28;20060;-83
2023/01/14 05:53:05;;;;;;;13.73;2.80;;;6.70;83.30;;;;;;5026963;28;20054;-81
2023/01/14 05:55:32;;;;;;;10.93;2.42;;;6.70;83.10;;;;;;5025923;28;20641;-81
2023/01/14 05:58:00;;;;;;;16.23;3.17;;;6.60;83.20;;;;;;5043919;28;20046;-81
2023/01/14 06:08:44;;;;;;;21.67;3.33;;;6.60;83.20;;;;;;5011728;28;20042;-82
2023/01/14 06:11:12;;;;;;;16.00;3.10;;;6.60;83.20;;;;;;5025509;28;20061;-81
2023/01/14 06:13:39;;;;;;;19.88;3.67;;;6.50;83.20;;;;;;5026928;28;20258;-82
2023/01/14 06:16:08;;;;;;;16.52;3.22;;;6.50;83.40;;;;;;5026713;28;20053;-82
2023/01/14 06:18:41;;;;;;;16.15;3.10;;;6.50;83.40;;;;;;5028197;28;20050;-82
2023/01/14 06:21:09;;;;;;;17.17;3.22;;;6.50;83.60;;;;;;5026554;28;20141;-81
2023/01/14 06:23:36;;;;;;;17.07;3.70;;;6.50;83.70;;;;;;5026713;28;20057;-81
2023/01/14 06:26:04;;;;;;;15.77;2.95;;;6.50;83.70;;;;;;5026560;28;20356;-83
2023/01/14 06:28:31;;;;;;;18.42;3.45;;;6.50;83.70;;;;;;5026765;28;20571;-82
2023/01/14 06:30:58;;;;;;;14.60;2.67;;;6.50;83.90;;;;;;5046420;28;20082;-82
2023/01/14 06:33:26;;;;;;;22.77;4.00;;;6.50;83.90;;;;;;5031394;28;20049;-81
2023/01/14 06:35:55;;;;;;;15.60;2.93;;;6.50;84.00;;;;;;5026734;28;20161;-82
2023/01/14 06:38:22;;;;;;;15.07;2.83;;;6.50;84.10;;;;;;5020101;28;20272;-81
2023/01/14 06:40:49;;;;;;;18.58;2.63;;;6.50;84.20;;;;;;5029758;28;20054;-83
2023/01/14 06:43:16;;;;;;;10.10;2.25;;;6.40;84.10;;;;;;5029747;28;20050;-81
2023/01/14 06:45:43;;;;;;;19.58;3.35;;;6.40;84.30;;;;;;5029873;28;20050;-82
2023/01/14 06:48:11;;;;;;;15.60;3.70;;;6.40;84.30;;;;;;5045324;28;20057;-81
2023/01/14 06:50:39;;;;;;;17.60;2.53;;;6.40;84.50;;;;;;5029437;28;21255;-82
2023/01/14 06:53:06;;;;;;;25.35;3.50;;;6.50;84.60;;;;;;5029818;28;20137;-82
2023/01/14 06:55:33;;;;;;;18.73;2.67;;;6.50;84.60;;;;;;5029599;28;20080;-81
2023/01/14 06:58:01;;;;;;;16.23;2.17;;;6.50;84.60;;;;;;5029732;28;20995;-81
2023/01/14 07:00:28;;;;;;;20.60;4.20;;;6.50;84.60;;;;;;5048531;28;20149;-82
2023/01/14 07:02:56;;;;;;;21.10;3.53;;;6.50;84.90;;;;;;5029539;28;20994;-83
2023/01/14 07:05:23;;;;;;;23.65;4.00;;;6.50;85.00;;;;;;5028694;28;20129;-81
2023/01/14 07:07:51;;;;;;;17.05;3.47;;;6.50;85.10;;;;;;5046379;28;20053;-82
2023/01/14 07:10:19;;;;;;;20.33;2.80;;;6.60;85.10;;;;;;5029398;28;20108;-82
2023/01/14 07:12:47;;;;;;;14.60;2.30;;;6.50;85.00;;;;;;5029459;28;20060;-81
2023/01/14 07:15:15;;;;;;;19.98;3.63;;;6.50;85.20;;;;;;5029477;28;20273;-81
2023/01/14 07:17:43;;;;;;;19.52;3.22;;;6.60;85.20;;;;;;5029467;28;20054;-82
2023/01/14 07:20:10;;;;;;;15.50;2.70;;;6.60;85.30;;;;;;5028985;28;20057;-81
2023/01/14 07:22:37;;;;;;;14.05;2.35;;;6.60;85.40;;;;;;5028656;28;20129;-82
2023/01/14 07:25:08;;;;;;;12.13;2.73;;;6.60;85.30;;;;;;5029167;28;20054;-82
2023/01/14 07:27:35;;;;;;;14.63;2.90;;;6.60;85.50;;;;;;5029323;28;20241;-82
2023/01/14 07:30:04;;;;;;;20.48;3.38;;;6.60;85.50;;;;;;5028889;28;20085;-82
2023/01/14 07:32:33;;;;;;;14.00;2.50;;;6.60;85.50;;;;;;5028946;28;20064;-82
2023/01/14 07:35:00;;;;;;;19.05;3.67;;;6.60;85.50;;;;;;5029033;28;20073;-82
2023/01/14 07:37:27;;;;;;;15.90;3.07;;;6.60;85.50;;;;;;5030754;28;20108;-82
2023/01/14 07:39:54;;;;;;;21.65;3.08;;;6.60;85.60;;;;;;5028720;28;21361;-82
2023/01/14 07:42:23;;;;;;;16.92;2.78;;;6.70;85.50;;;;;;5030347;28;20566;-82
2023/01/14 07:44:50;;;;;;;20.90;3.33;;;6.60;85.40;;;;;;5028693;28;20058;-82
2023/01/14 07:47:17;;;;;;;17.85;3.15;;;6.60;85.50;;;;;;5029250;28;20859;-82
2023/01/14 07:49:44;;;;;;;10.77;2.10;;;6.60;85.70;;;;;;5044777;28;20053;-82
2023/01/14 07:52:13;;;;;;;13.50;2.28;;;6.70;85.60;;;;;;5028717;28;20991;-82
2023/01/14 07:54:40;;;;;;;9.65;1.95;;;6.70;85.70;;;;;;5028550;28;20046;-81
2023/01/14 07:57:09;;;;;;;19.15;2.63;;;6.70;85.50;;;;;;5027787;28;20054;-82
2023/01/14 07:59:38;;;;;;;17.30;2.80;;;6.70;85.70;;;;;;5028394;28;20062;-81
2023/01/14 08:02:06;;;;;;;19.33;2.77;;;6.70;85.50;;;;;;5028434;28;20046;-82
2023/01/14 08:04:33;;;;;;;15.77;2.63;;;6.70;85.50;;;;;;5028386;28;20368;-81
2023/01/14 08:07:01;;;;;;;13.23;2.67;;;6.70;85.50;;;;;;5028230;28;20081;-81
2023/01/14 08:09:29;;;;;;;14.35;2.30;;;6.60;85.50;;;;;;5028023;28;20045;-82
2023/01/14 08:11:56;;;;;;;17.40;3.05;;;6.70;85.70;;;;;;5041213;28;20053;-81
2023/01/14 08:14:23;;;;;;;16.73;2.23;;;6.70;85.70;;;;;;5028066;28;20110;-82
2023/01/14 08:16:52;;;;;;;11.82;2.13;;;6.70;85.80;;;;;;5021990;28;20308;-81
2023/01/14 08:19:19;;;;;;;15.35;2.28;;;6.70;85.70;;;;;;5026496;28;20087;-82
2023/01/14 08:21:46;;;;;;;13.38;2.13;;;6.70;85.80;;;;;;5021583;28;20136;-82
2023/01/14 08:24:13;;;;;;;14.27;2.03;;;6.70;85.80;;;;;;5025630;28;20050;-82
2023/01/14 08:26:40;;;;;;;15.40;2.10;;;6.70;86.00;;;;;;5022351;28;20053;-83
2023/01/14 08:29:07;;;;;;;15.30;2.08;;;6.70;85.90;;;;;;5007088;28;20257;-82
2023/01/14 08:31:34;;;;;;;12.60;2.08;;;6.70;85.90;;;;;;5008350;28;20054;-82
2023/01/14 08:34:03;;;;;;;13.05;1.83;;;6.70;86.00;;;;;;5025890;28;20430;-83
2023/01/14 08:36:30;;;;;;;13.85;1.80;;;6.70;86.20;;;;;;5028097;28;20051;-81
2023/01/14 08:38:58;;;;;;;15.37;2.70;;;6.70;86.20;;;;;;5025424;28;20077;-82
2023/01/14 08:41:25;;;;;;;12.10;1.95;;;6.70;86.40;;;;;;5025020;28;20417;-82
2023/01/14 08:43:53;;;;;;;17.05;2.65;;;6.70;86.30;;;;;;5022409;28;20160;-82
2023/01/14 08:46:20;;;;;;;11.88;1.50;;;6.70;86.50;;;;;;5022984;28;20061;-81
2023/01/14 08:48:48;;;;;;;13.52;2.22;;;6.70;86.40;;;;;;5017705;28;20857;-83
2023/01/14 08:51:16;;;;;;;13.67;1.73;;;6.70;86.50;;;;;;5024236;28;20050;-81
2023/01/14 08:53:43;;;;;;;16.85;2.80;;;6.70;86.80;;;;;;5028179;28;20296;-81
2023/01/14 08:56:15;;;;;;;9.80;1.60;;;6.70;86.70;;;;;;5026399;28;20097;-82
2023/01/14 08:58:43;;;;;;;14.57;2.00;;;6.70;86.60;;;;;;5013289;28;20058;-81
2023/01/14 09:01:11;;;;;;;11.80;1.83;;;6.70;87.00;;;;;;5023330;28;20046;-83
2023/01/14 09:03:39;;;;;;;12.73;1.53;;;6.70;86.80;;;;;;5028280;28;20583;-82
2023/01/14 09:06:09;;;;;;;11.13;1.70;;;6.70;86.90;;;;;;5043966;28;21108;-81
2023/01/14 09:17:10;;;;;;;9.60;1.40;;;6.60;87.10;;;;;;5024362;28;20092;-83
2023/01/14 09:19:40;;;;;;;12.38;1.45;;;6.60;87.30;;;;;;5019561;28;20274;-82
2023/01/14 09:22:32;;;;;;;9.23;1.90;;;6.70;87.50;;;;;;5022612;28;20046;-83
2023/01/14 09:25:01;;;;;;;7.60;1.20;;;6.60;87.40;;;;;;5036178;28;20050;-82
2023/01/14 09:27:29;;;;;;;8.35;1.05;;;6.70;87.70;;;;;;5030435;28;20049;-81
2023/01/14 09:29:57;;;;;;;14.33;1.80;;;6.70;87.90;;;;;;5027173;28;20054;-82
2023/01/14 09:32:24;;;;;;;11.32;2.00;;;6.70;87.80;;;;;;5027415;28;20400;-82
2023/01/14 09:34:52;;;;;;;8.52;1.63;;;6.70;87.80;;;;;;5027372;28;20056;-81
2023/01/14 09:37:22;;;;;;;8.43;1.52;;;6.70;87.90;;;;;;5025592;28;20069;-84
2023/01/14 09:43:31;;;;;;;9.00;1.30;;;6.70;88.30;;;;;;5000638;28;20082;-83
2023/01/14 09:46:00;;;;;;;6.38;1.23;;;6.70;88.40;;;;;;4990094;28;21066;-84
2023/01/14 09:48:31;;;;;;;4.82;0.60;;;6.70;88.50;;;;;;5005977;28;20555;-82
2023/01/14 09:51:06;;;;;;;8.45;1.40;;;6.70;88.40;;;;;;4998261;28;20050;-82
2023/01/14 09:53:49;;;;;;;8.40;1.20;;;6.70;88.50;;;;;;5002294;28;20169;-82
2023/01/14 09:56:22;;;;;;;6.93;1.00;;;6.80;88.80;;;;;;4988858;28;20516;-83
2023/01/14 09:58:54;;;;;;;7.88;1.50;;;6.80;88.90;;;;;;5003440;28;20899;-83
2023/01/14 10:01:30;;;;;;;6.93;1.23;;;6.80;88.80;;;;;;4990556;28;20052;-82
2023/01/14 10:04:03;;;;;;;7.47;1.10;;;6.80;88.70;;;;;;4992210;28;21007;-82
2023/01/14 10:06:31;;;;;;;5.55;0.98;;;6.80;89.00;;;;;;4976318;28;20129;-82
2023/01/14 10:09:03;;;;;;;7.17;1.17;;;6.80;89.10;;;;;;4996673;28;20046;-83
2023/01/14 10:11:35;;;;;;;6.50;1.17;;;6.80;89.00;;;;;;5008518;28;20711;-83
2023/01/14 10:14:10;;;;;;;8.10;1.05;;;6.90;89.10;;;;;;5009754;28;20153;-82
2023/01/14 10:16:42;;;;;;;5.75;0.90;;;6.90;89.00;;;;;;4986016;28;20162;-84
2023/01/14 10:19:18;;;;;;;8.60;1.30;;;6.90;89.40;;;;;;5011038;28;20082;-82
2023/01/14 10:21:47;;;;;;;7.67;0.90;;;6.90;89.30;;;;;;5010402;28;20579;-82
2023/01/14 10:24:16;;;;;;;8.15;1.20;;;6.90;89.20;;;;;;4987074;28;20282;-85
2023/01/14 10:26:44;;;;;;;6.43;1.30;;;7.00;89.40;;;;;;5000795;28;20058;-84
2023/01/14 10:29:15;;;;;;;3.88;0.60;;;7.00;89.50;;;;;;5010946;28;20061;-83
2023/01/14 10:31:47;;;;;;;5.60;1.10;;;7.00;89.40;;;;;;4994512;28;20046;-82
2023/01/14 10:34:22;;;;;;;6.40;1.00;;;7.00;89.30;;;;;;5007284;28;20054;-81
2023/01/14 10:36:49;;;;;;;3.60;0.70;;;7.00;89.60;;;;;;5005939;28;20945;-83
2023/01/14 10:39:16;;;;;;;5.45;0.93;;;7.00;89.60;;;;;;4991872;28;20074;-81
2023/01/14 10:41:50;;;;;;;6.13;1.05;;;7.00;89.60;;;;;;5007850;28;20059;-82
2023/01/14 10:44:23;;;;;;;5.20;0.80;;;7.00;89.60;;;;;;5008591;28;20066;-82
2023/01/14 10:46:52;;;;;;;5.53;0.90;;;7.10;89.70;;;;;;5017003;28;20057;-82
2023/01/14 10:49:22;;;;;;;7.30;1.08;;;7.10;89.70;;;;;;4993401;28;20286;-83
2023/01/14 10:51:50;;;;;;;6.45;1.00;;;7.10;89.60;;;;;;5010025;28;20133;-81
2023/01/14 10:54:19;;;;;;;5.63;0.80;;;7.20;89.90;;;;;;4993521;28;20062;-80
2023/01/14 10:56:52;;;;;;;4.18;0.65;;;7.20;89.70;;;;;;5006835;28;20070;-82
2023/01/14 10:59:33;;;;;;;2.70;0.57;;;7.20;89.70;;;;;;5001479;28;20146;-81
2023/01/14 11:02:00;;;;;;;4.15;0.70;;;7.20;89.80;;;;;;5007489;28;20251;-81
2023/01/14 11:04:29;;;;;;;5.10;1.00;;;7.20;89.70;;;;;;5009548;28;20069;-82
2023/01/14 11:06:56;;;;;;;5.45;1.00;;;7.20;89.80;;;;;;5008522;28;20052;-81
2023/01/14 11:09:27;;;;;;;5.20;0.80;;;7.20;89.90;;;;;;5008317;28;20186;-82
2023/01/14 11:11:54;;;;;;;5.07;0.90;;;7.20;90.00;;;;;;5011491;28;20065;-82
2023/01/14 11:14:31;;;;;;;4.80;0.82;;;7.20;89.90;;;;;;5004015;28;20263;-82
2023/01/14 11:16:58;;;;;;;6.35;0.90;;;7.30;90.20;;;;;;5010031;28;20046;-83
2023/01/14 11:19:25;;;;;;;5.53;0.70;;;7.30;90.00;;;;;;4978235;28;20046;-81
2023/01/14 11:21:54;;;;;;;5.22;0.70;;;7.30;90.10;;;;;;4993061;28;20152;-80
2023/01/14 11:24:35;;;;;;;3.50;0.60;;;7.40;90.20;;;;;;4985324;28;20900;-81
2023/01/14 11:27:04;;;;;;;4.47;0.73;;;7.40;90.20;;;;;;4997720;28;20328;-81
2023/01/14 11:29:36;;;;;;;4.70;0.80;;;7.40;90.20;;;;;;5006988;28;20145;-81
2023/01/14 11:32:08;;;;;;;4.30;0.80;;;7.40;90.20;;;;;;5011605;28;20520;-81
2023/01/14 11:34:39;;;;;;;4.97;0.70;;;7.50;90.20;;;;;;4994325;28;20478;-82
2023/01/14 11:37:16;;;;;;;5.00;0.60;;;7.50;90.20;;;;;;5007610;28;20061;-81
2023/01/14 11:39:48;;;;;;;3.72;0.80;;;7.50;90.30;;;;;;4999334;28;20794;-82
2023/01/14 11:42:33;;;;;;;4.28;0.90;;;7.50;90.10;;;;;;4991161;28;20115;-81
2023/01/14 11:45:04;;;;;;;4.30;0.70;;;7.50;90.20;;;;;;4990256;28;20101;-81
2023/01/14 11:47:45;;;;;;;3.83;1.00;;;7.50;90.20;;;;;;4971206;28;20051;-81
2023/01/14 11:50:16;;;;;;;3.43;0.80;;;7.50;90.20;;;;;;5004890;28;20061;-81
2023/01/14 11:52:56;;;;;;;4.53;1.00;;;7.50;90.30;;;;;;4993345;28;20707;-81
2023/01/14 11:55:24;;;;;;;2.92;0.50;;;7.50;90.20;;;;;;5007486;28;20055;-80
2023/01/14 11:57:51;;;;;;;3.15;0.55;;;7.50;90.30;;;;;;4991048;28;20191;-81
2023/01/14 12:00:21;;;;;;;4.07;0.98;;;7.50;90.40;;;;;;4996817;28;20055;-80
2023/01/14 12:02:57;;;;;;;4.47;1.13;;;7.50;90.40;;;;;;5008767;28;20065;-81
2023/01/14 12:05:25;;;;;;;4.28;0.50;;;7.50;90.50;;;;;;4991069;28;20353;-80
2023/01/14 12:07:55;;;;;;;4.00;0.70;;;7.60;90.70;;;;;;4992556;28;20450;-80
2023/01/14 12:10:27;;;;;;;2.55;0.50;;;7.70;90.60;;;;;;5009337;28;20184;-80
2023/01/14 12:18:39;;;;;;;4.10;0.70;;;7.80;90.90;;;;;;4988382;28;20890;-80
2023/01/14 12:21:07;;;;;;;3.13;0.43;;;7.80;90.80;;;;;;5009729;28;20472;-79
2023/01/14 12:23:42;;;;;;;5.20;0.65;;;7.80;90.80;;;;;;4997344;28;20100;-79
2023/01/14 12:26:17;;;;;;;3.17;0.47;;;7.80;90.90;;;;;;4993757;28;20134;-82
2023/01/14 12:28:48;;;;;;;4.67;0.70;;;7.90;91.00;;;;;;5007880;28;20062;-81
2023/01/14 12:31:22;;;;;;;2.40;0.50;;;8.00;91.00;;;;;;5008552;28;20261;-80
2023/01/14 12:33:55;;;;;;;3.45;0.80;;;7.90;91.10;;;;;;5009107;28;20059;-82
2023/01/14 12:36:25;;;;;;;3.20;0.55;;;8.00;91.20;;;;;;5009522;28;20597;-80
2023/01/14 12:47:33;;;;;;;4.55;1.00;;;8.10;91.40;;;;;;5006580;28;20058;-80
2023/01/14 12:50:02;;;;;;;3.45;0.57;;;8.20;91.50;;;;;;5007269;28;20077;-80
2023/01/14 12:52:32;;;;;;;4.82;0.75;;;8.30;91.50;;;;;;5014158;28;20566;-81
2023/01/14 12:55:00;;;;;;;3.60;0.60;;;8.30;91.60;;;;;;5011542;28;20074;-80
2023/01/14 12:57:28;;;;;;;6.22;0.80;;;8.40;91.60;;;;;;5007628;28;20258;-80
2023/01/14 13:00:00;;;;;;;3.45;0.70;;;8.40;91.60;;;;;;5000713;28;20077;-80
2023/01/14 13:02:34;;;;;;;3.35;0.80;;;8.50;91.70;;;;;;5005454;28;20050;-81
2023/01/14 13:05:06;;;;;;;2.97;0.50;;;8.60;91.50;;;;;;4999543;28;20133;-81
2023/01/14 13:07:37;;;;;;;2.80;0.43;;;8.60;91.50;;;;;;4990858;28;20125;-82
2023/01/14 13:10:07;;;;;;;3.25;0.70;;;8.60;91.50;;;;;;5005031;28;20405;-81
2023/01/14 13:12:36;;;;;;;3.35;0.70;;;8.60;91.50;;;;;;5008803;28;20061;-81
2023/01/14 13:15:07;;;;;;;4.10;1.00;;;8.70;91.50;;;;;;5007634;28;20544;-81
2023/01/14 13:17:37;;;;;;;3.53;0.90;;;8.80;91.50;;;;;;5004978;28;20500;-80
2023/01/14 13:20:27;;;;;;;3.23;0.70;;;8.80;91.50;;;;;;4999118;28;20509;-82
2023/01/14 13:22:55;;;;;;;4.15;0.80;;;8.90;91.40;;;;;;5008793;28;21024;-81
2023/01/14 13:25:43;;;;;;;4.72;0.88;;;8.90;91.40;;;;;;4988883;28;20133;-81
2023/01/14 13:28:53;;;;;;;4.07;0.70;;;9.00;91.50;;;;;;5006688;28;20671;-80
2023/01/14 13:31:32;;;;;;;1.92;0.38;;;9.00;91.50;;;;;;5005655;28;20054;-81
2023/01/14 13:34:36;;;;;;;2.53;0.50;;;9.00;91.40;;;;;;5004921;28;21135;-80
2023/01/14 13:37:23;;;;;;;3.55;0.75;;;9.10;91.30;;;;;;4984635;28;20254;-80
2023/01/14 13:39:54;;;;;;;2.30;0.50;;;9.20;91.40;;;;;;5003597;28;20542;-80
2023/01/14 13:42:26;;;;;;;2.75;0.50;;;9.20;91.50;;;;;;4990386;28;20520;-79
2023/01/14 13:44:56;;;;;;;3.05;0.50;;;9.20;91.50;;;;;;4989804;28;20506;-79
2023/01/14 13:47:29;;;;;;;4.10;0.60;;;9.20;91.70;;;;;;5000099;28;21057;-81
2023/01/14 13:50:02;;;;;;;4.93;0.60;;;9.30;91.80;;;;;;4990517;28;20807;-80
2023/01/14 13:52:32;;;;;;;4.07;0.40;;;9.30;91.60;;;;;;4990633;28;20073;-80
2023/01/14 13:55:05;;;;;;;3.17;0.47;;;9.40;91.70;;;;;;5008364;28;20054;-80